createdAt,value
2018-03-03T00:00:40.928Z,69.43
2018-03-03T00:03:08.629Z,71.87
2018-03-03T00:05:36.450Z,74.10
2018-03-03T00:08:05.470Z,80.87
2018-03-03T00:10:33.050Z,117.60
2018-03-03T00:13:00.808Z,91.25
2018-03-03T00:15:28.434Z,74.45
2018-03-03T00:17:56.002Z,69.07
2018-03-03T00:20:23.577Z,71.07
2018-03-03T00:22:51.164Z,76.32
2018-03-03T00:25:18.716Z,70.83
2018-03-03T00:27:46.518Z,74.47
2018-03-03T00:30:14.331Z,79.03
2018-03-03T00:32:41.909Z,94.87
2018-03-03T00:35:09.502Z,94.13
2018-03-03T00:37:37.089Z,89.60
2018-03-03T00:40:04.701Z,93.03
2018-03-03T00:42:32.280Z,431.90
2018-03-03T00:45:00.006Z,149.25
2018-03-03T00:47:27.757Z,99.55
2018-03-03T00:49:55.489Z,79.70
2018-03-03T00:52:23.074Z,73.62
2018-03-03T00:54:50.700Z,59.30
2018-03-03T00:57:18.282Z,63.15
2018-03-03T00:59:45.862Z,58.25
2018-03-03T01:02:13.441Z,65.00
2018-03-03T01:04:41.017Z,64.62
2018-03-03T01:07:08.590Z,73.90
2018-03-03T01:09:36.317Z,80.07
2018-03-03T01:12:03.954Z,72.32
2018-03-03T01:14:31.754Z,70.40
2018-03-03T01:16:59.571Z,69.07
2018-03-03T01:19:27.134Z,74.80
2018-03-03T01:21:54.704Z,82.47
2018-03-03T01:24:22.529Z,77.60
2018-03-03T01:26:50.344Z,85.57
2018-03-03T01:29:17.958Z,83.70
2018-03-03T01:31:45.680Z,83.23
2018-03-03T01:34:13.257Z,107.45
2018-03-03T01:36:41.018Z,80.47
2018-03-03T01:39:08.590Z,82.55
2018-03-03T01:41:36.325Z,76.97
2018-03-03T01:44:04.083Z,80.60
2018-03-03T01:46:31.687Z,127.57
2018-03-03T01:48:59.260Z,80.13
2018-03-03T01:51:49.525Z,69.20
2018-03-03T01:54:17.089Z,73.43
2018-03-03T01:56:44.707Z,72.57
2018-03-03T01:59:12.270Z,85.50
2018-03-03T02:01:39.847Z,84.40
2018-03-03T02:04:07.440Z,91.77
2018-03-03T02:06:35.009Z,100.90
2018-03-03T02:09:02.713Z,97.57
2018-03-03T02:11:30.546Z,101.20
2018-03-03T02:13:58.367Z,107.40
2018-03-03T02:16:25.956Z,117.43
2018-03-03T02:18:53.700Z,100.83
2018-03-03T02:21:21.519Z,89.00
2018-03-03T02:23:49.088Z,84.47
2018-03-03T02:26:16.737Z,92.70
2018-03-03T02:28:44.324Z,93.53
2018-03-03T02:31:11.963Z,79.97
2018-03-03T02:33:39.544Z,72.75
2018-03-03T02:36:07.123Z,81.60
2018-03-03T02:38:34.711Z,82.53
2018-03-03T02:41:02.436Z,79.47
2018-03-03T02:43:30.025Z,71.00
2018-03-03T02:45:57.581Z,68.80
2018-03-03T02:48:25.204Z,70.10
2018-03-03T02:50:53.034Z,73.05
2018-03-03T02:53:20.598Z,77.70
2018-03-03T02:55:48.249Z,66.65
2018-03-03T02:58:15.955Z,60.40
2018-03-03T03:00:43.526Z,56.20
2018-03-03T03:03:11.803Z,58.87
2018-03-03T03:05:39.936Z,60.15
2018-03-03T03:08:07.561Z,58.65
2018-03-03T03:10:35.131Z,57.47
2018-03-03T03:13:02.814Z,58.75
2018-03-03T03:15:30.381Z,69.60
2018-03-03T03:17:58.135Z,56.33
2018-03-03T03:20:25.710Z,54.55
2018-03-03T03:22:53.370Z,55.03
2018-03-03T03:25:21.188Z,56.47
2018-03-03T03:27:48.906Z,62.17
2018-03-03T03:30:16.499Z,63.45
2018-03-03T03:32:44.223Z,69.17
2018-03-03T03:35:11.795Z,56.30
2018-03-03T03:37:39.354Z,53.20
2018-03-03T03:40:07.196Z,58.53
2018-03-03T03:42:34.763Z,54.85
2018-03-03T03:45:02.339Z,55.53
2018-03-03T03:47:29.939Z,56.37
2018-03-03T03:49:57.501Z,53.00
2018-03-03T03:52:25.178Z,57.47
2018-03-03T03:54:52.747Z,57.73
2018-03-03T03:57:20.376Z,56.83
2018-03-03T03:59:47.949Z,60.47
2018-03-03T04:02:15.757Z,52.70
2018-03-03T04:04:43.468Z,57.05
2018-03-03T04:07:11.084Z,58.55
2018-03-03T04:09:38.674Z,65.23
2018-03-03T04:12:06.405Z,67.10
2018-03-03T04:14:34.058Z,70.15
2018-03-03T04:17:01.638Z,71.25
2018-03-03T04:19:29.214Z,77.65
2018-03-03T04:21:56.816Z,71.53
2018-03-03T04:24:24.426Z,75.80
2018-03-03T04:26:52.058Z,80.00
2018-03-03T04:29:19.773Z,80.12
2018-03-03T04:31:47.442Z,82.12
2018-03-03T04:34:15.080Z,77.90
2018-03-03T04:36:42.659Z,74.83
2018-03-03T04:39:10.245Z,76.05
2018-03-03T04:41:37.817Z,82.23
2018-03-03T04:44:05.661Z,80.70
2018-03-03T04:46:33.262Z,75.80
2018-03-03T04:49:01.097Z,68.57
2018-03-03T04:51:28.698Z,67.87
2018-03-03T04:53:56.298Z,64.43
2018-03-03T04:56:23.918Z,61.13
2018-03-03T04:58:54.205Z,61.67
2018-03-03T05:01:21.894Z,67.70
2018-03-03T05:06:57.474Z,64.83
2018-03-03T05:09:25.294Z,64.70
2018-03-03T05:11:52.967Z,77.57
2018-03-03T05:14:25.997Z,71.53
2018-03-03T05:16:59.356Z,69.40
2018-03-03T05:19:32.477Z,68.53
2018-03-03T05:22:05.710Z,71.62
2018-03-03T05:24:38.920Z,70.37
2018-03-03T05:27:12.251Z,77.90
2018-03-03T05:29:45.572Z,74.32
2018-03-03T05:35:21.447Z,73.70
2018-03-03T05:37:54.498Z,70.57
2018-03-03T05:40:27.724Z,70.43
2018-03-03T05:43:02.009Z,82.43
2018-03-03T05:45:35.180Z,62.73
2018-03-03T05:51:20.715Z,61.97
2018-03-03T05:56:55.202Z,81.83
2018-03-03T05:59:28.282Z,70.50
2018-03-03T06:02:05.778Z,67.37
2018-03-03T06:04:48.229Z,72.30
2018-03-03T06:07:21.463Z,72.43
2018-03-03T06:09:59.788Z,73.03
2018-03-03T06:12:27.364Z,75.27
2018-03-03T06:14:55.014Z,79.93
2018-03-03T06:17:22.579Z,77.67
2018-03-03T06:19:50.139Z,78.43
2018-03-03T06:22:17.931Z,79.53
2018-03-03T06:24:45.489Z,99.03
2018-03-03T06:27:13.062Z,117.83
2018-03-03T06:29:40.758Z,105.00
2018-03-03T06:32:08.375Z,105.13
2018-03-03T06:34:35.951Z,98.83
2018-03-03T06:37:03.527Z,115.00
2018-03-03T06:39:31.224Z,97.63
2018-03-03T06:41:58.786Z,104.97
2018-03-03T06:44:26.385Z,76.17
2018-03-03T06:46:53.947Z,80.50
2018-03-03T06:49:21.726Z,130.60
2018-03-03T06:51:49.893Z,101.50
2018-03-03T06:54:17.450Z,86.70
2018-03-03T06:56:45.026Z,90.97
2018-03-03T06:59:12.874Z,99.73
2018-03-03T07:01:40.466Z,120.47
2018-03-03T07:04:08.235Z,96.93
2018-03-03T07:06:35.858Z,98.80
2018-03-03T07:09:03.473Z,112.77
2018-03-03T07:11:31.070Z,106.43
2018-03-03T07:13:58.692Z,92.30
2018-03-03T07:16:26.363Z,84.17
2018-03-03T07:18:53.996Z,85.27
2018-03-03T07:21:21.555Z,89.43
2018-03-03T07:23:49.376Z,89.40
2018-03-03T07:26:16.942Z,94.63
2018-03-03T07:28:44.729Z,90.77
2018-03-03T07:31:12.533Z,82.33
2018-03-03T07:33:40.352Z,43.57
2018-03-03T07:36:07.923Z,44.50
2018-03-03T07:38:36.110Z,41.93
2018-03-03T07:41:04.669Z,42.50
2018-03-03T07:43:32.233Z,37.90
2018-03-03T07:46:00.047Z,39.70
2018-03-03T07:48:27.691Z,41.27
2018-03-03T07:50:55.325Z,42.70
2018-03-03T07:53:22.894Z,41.60
2018-03-03T07:55:50.461Z,40.37
2018-03-03T07:58:29.898Z,41.43
2018-03-03T08:00:57.695Z,43.67
2018-03-03T08:03:25.515Z,40.77
2018-03-03T08:05:53.317Z,42.23
2018-03-03T08:08:21.051Z,45.37
2018-03-03T08:10:48.637Z,47.13
2018-03-03T08:13:16.387Z,70.80
2018-03-03T08:15:44.205Z,64.87
2018-03-03T08:18:11.778Z,50.33
2018-03-03T08:20:39.341Z,63.23
2018-03-03T08:23:06.910Z,47.60
2018-03-03T08:25:34.648Z,51.93
2018-03-03T08:28:02.496Z,48.13
2018-03-03T08:30:30.214Z,42.67
2018-03-03T08:32:57.842Z,65.97
2018-03-03T08:35:25.614Z,57.60
2018-03-03T08:37:53.210Z,41.13
2018-03-03T08:40:20.986Z,41.00
2018-03-03T08:42:48.535Z,42.37
2018-03-03T08:45:16.117Z,40.67
2018-03-03T08:47:43.690Z,41.70
2018-03-03T08:50:11.314Z,41.00
2018-03-03T08:52:38.921Z,44.70
2018-03-03T08:55:06.478Z,44.87
2018-03-03T08:57:34.200Z,47.27
2018-03-03T09:00:02.029Z,46.47
2018-03-03T09:02:29.610Z,45.33
2018-03-03T09:04:57.178Z,42.77
2018-03-03T09:07:24.791Z,43.23
2018-03-03T09:09:52.366Z,44.50
2018-03-03T09:12:19.990Z,43.33
2018-03-03T09:14:47.555Z,44.50
2018-03-03T09:17:15.354Z,47.80
2018-03-03T09:19:42.925Z,49.80
2018-03-03T09:22:10.651Z,49.10
2018-03-03T09:24:38.254Z,58.33
2018-03-03T09:27:05.828Z,47.63
2018-03-03T09:29:33.465Z,49.43
2018-03-03T09:32:01.030Z,44.90
2018-03-03T09:34:28.585Z,46.43
2018-03-03T09:36:56.149Z,49.40
2018-03-03T09:39:23.706Z,49.37
2018-03-03T09:41:51.328Z,51.23
2018-03-03T09:44:18.890Z,56.27
2018-03-03T09:46:46.502Z,51.33
2018-03-03T09:49:14.319Z,49.80
2018-03-03T09:51:42.183Z,44.17
2018-03-03T09:54:09.913Z,45.20
2018-03-03T09:56:37.474Z,49.73
2018-03-03T09:59:05.260Z,55.23
2018-03-03T10:01:33.157Z,59.87
2018-03-03T10:04:01.001Z,88.70
2018-03-03T10:06:28.596Z,61.40
2018-03-03T10:08:56.173Z,65.87
2018-03-03T10:11:23.950Z,58.63
2018-03-03T10:13:51.510Z,62.93
2018-03-03T10:16:19.299Z,60.70
2018-03-03T10:18:46.903Z,61.70
2018-03-03T10:21:14.557Z,65.80
2018-03-03T10:23:42.133Z,68.37
2018-03-03T10:26:09.858Z,84.87
2018-03-03T10:28:37.575Z,63.63
2018-03-03T10:31:05.142Z,78.57
2018-03-03T10:33:32.716Z,66.67
2018-03-03T10:36:00.531Z,64.50
2018-03-03T10:38:28.230Z,65.30
2018-03-03T10:40:55.792Z,67.90
2018-03-03T10:43:23.585Z,65.07
2018-03-03T10:45:51.315Z,67.17
2018-03-03T10:48:18.910Z,45.03
2018-03-03T10:50:46.803Z,36.40
2018-03-03T10:53:14.557Z,36.90
2018-03-03T10:55:42.809Z,33.03
2018-03-03T10:58:10.383Z,27.67
2018-03-03T11:00:37.990Z,25.77
2018-03-03T11:03:05.831Z,24.53
2018-03-03T11:05:33.408Z,25.93
2018-03-03T11:08:00.979Z,33.43
2018-03-03T11:10:28.791Z,38.33
2018-03-03T11:12:56.502Z,36.53
2018-03-03T11:15:24.126Z,35.90
2018-03-03T11:17:51.728Z,37.40
2018-03-03T11:20:19.361Z,30.27
2018-03-03T11:22:47.175Z,30.07
2018-03-03T11:25:14.996Z,25.27
2018-03-03T11:27:42.637Z,22.97
2018-03-03T11:30:10.182Z,24.90
2018-03-03T11:32:37.750Z,24.37
2018-03-03T11:35:05.333Z,53.33
2018-03-03T11:37:33.084Z,26.23
2018-03-03T11:40:00.903Z,21.70
2018-03-03T11:42:28.518Z,22.13
2018-03-03T11:44:56.086Z,24.57
2018-03-03T11:47:23.693Z,23.63
2018-03-03T11:49:51.474Z,20.43
2018-03-03T11:52:19.033Z,22.23
2018-03-03T11:54:46.703Z,29.40
2018-03-03T11:57:14.292Z,29.43
2018-03-03T11:59:42.152Z,27.27
2018-03-03T12:02:09.752Z,43.70
2018-03-03T12:04:37.324Z,58.83
2018-03-03T12:07:04.899Z,78.73
2018-03-03T12:09:32.620Z,44.30
2018-03-03T12:12:00.210Z,41.97
2018-03-03T12:14:27.954Z,47.30
2018-03-03T12:16:55.587Z,35.23
2018-03-03T12:19:23.392Z,34.83
2018-03-03T12:21:51.108Z,54.20
2018-03-03T12:24:18.719Z,64.50
2018-03-03T12:26:46.460Z,71.07
2018-03-03T12:29:14.150Z,27.73
2018-03-03T12:31:41.751Z,25.83
2018-03-03T12:34:09.389Z,30.73
2018-03-03T12:36:36.953Z,15.73
2018-03-03T12:39:04.587Z,20.33
2018-03-03T12:41:32.363Z,18.87
2018-03-03T12:44:00.088Z,16.87
2018-03-03T12:46:27.683Z,23.27
2018-03-03T12:48:55.249Z,31.23
2018-03-03T12:51:22.875Z,34.57
2018-03-03T12:53:50.810Z,18.27
2018-03-03T12:56:18.452Z,24.13
2018-03-03T12:58:46.209Z,26.70
2018-03-03T13:01:13.776Z,26.57
2018-03-03T13:03:41.393Z,28.60
2018-03-03T13:06:08.950Z,40.23
2018-03-03T13:08:36.630Z,18.30
2018-03-03T13:11:04.209Z,19.63
2018-03-03T13:13:31.993Z,16.10
2018-03-03T13:15:59.595Z,17.87
2018-03-03T13:18:27.160Z,24.10
2018-03-03T13:20:54.943Z,16.57
2018-03-03T13:23:22.577Z,20.37
2018-03-03T13:25:50.729Z,19.43
2018-03-03T13:28:18.463Z,23.57
2018-03-03T13:30:46.318Z,18.13
2018-03-03T13:33:14.134Z,44.47
2018-03-03T13:35:41.769Z,36.70
2018-03-03T13:38:09.313Z,26.93
2018-03-03T13:40:36.874Z,17.27
2018-03-03T13:43:04.706Z,38.87
2018-03-03T13:45:32.266Z,26.00
2018-03-03T13:47:59.863Z,20.03
2018-03-03T13:50:27.470Z,42.73
2018-03-03T13:52:55.132Z,15.17
2018-03-03T13:55:22.897Z,17.03
2018-03-03T13:57:50.470Z,17.13
2018-03-03T14:00:18.305Z,18.67
2018-03-03T14:02:46.022Z,21.77
2018-03-03T14:05:13.600Z,49.17
2018-03-03T14:07:41.394Z,32.47
2018-03-03T14:10:08.950Z,24.63
2018-03-03T14:12:36.517Z,52.00
2018-03-03T14:15:04.141Z,23.23
2018-03-03T14:17:31.959Z,35.33
2018-03-03T14:19:59.787Z,58.33
2018-03-03T14:22:27.350Z,51.70
2018-03-03T14:24:54.927Z,55.80
2018-03-03T14:27:22.511Z,99.43
2018-03-03T14:29:50.218Z,92.00
2018-03-03T14:32:17.781Z,63.33
2018-03-03T14:34:45.397Z,38.10
2018-03-03T14:37:12.958Z,47.83
2018-03-03T14:39:40.526Z,27.90
2018-03-03T14:42:08.103Z,33.07
2018-03-03T14:44:35.956Z,43.93
2018-03-03T14:47:03.603Z,23.53
2018-03-03T14:49:31.291Z,23.93
2018-03-03T14:51:59.013Z,29.63
2018-03-03T14:54:26.611Z,31.83
2018-03-03T14:56:54.348Z,26.50
2018-03-03T14:59:21.942Z,31.97
2018-03-03T15:01:49.510Z,73.17
2018-03-03T15:04:17.136Z,36.37
2018-03-03T15:06:44.780Z,37.03
2018-03-03T15:09:12.370Z,25.10
2018-03-03T15:11:40.046Z,23.93
2018-03-03T15:14:07.757Z,15.47
2018-03-03T15:16:35.307Z,20.93
2018-03-03T15:19:02.871Z,39.73
2018-03-03T15:21:30.500Z,43.40
2018-03-03T15:23:58.068Z,49.57
2018-03-03T15:26:25.630Z,43.40
2018-03-03T15:28:53.215Z,85.87
2018-03-03T15:31:21.097Z,118.53
2018-03-03T15:33:48.715Z,52.17
2018-03-03T15:36:16.533Z,234.67
2018-03-03T15:38:44.353Z,130.87
2018-03-03T15:41:11.927Z,94.80
2018-03-03T15:43:39.684Z,64.73
2018-03-03T15:46:07.273Z,99.47
2018-03-03T15:48:34.842Z,71.93
2018-03-03T15:51:02.644Z,76.83
2018-03-03T15:53:30.217Z,89.93
2018-03-03T15:55:57.998Z,214.23
2018-03-03T15:58:25.779Z,236.23
2018-03-03T16:00:53.348Z,279.47
2018-03-03T16:03:21.132Z,274.47
2018-03-03T16:05:48.693Z,70.90
2018-03-03T16:08:16.262Z,74.93
2018-03-03T16:10:43.821Z,83.67
2018-03-03T16:13:11.707Z,52.27
2018-03-03T16:15:39.520Z,191.13
2018-03-03T16:18:07.245Z,400.27
2018-03-03T16:20:35.060Z,102.27
2018-03-03T16:23:02.634Z,372.17
2018-03-03T16:25:30.213Z,177.77
2018-03-03T16:27:58.015Z,241.27
2018-03-03T16:30:25.832Z,249.07
2018-03-03T16:32:53.651Z,245.10
2018-03-03T16:35:21.470Z,193.03
2018-03-03T16:37:49.366Z,187.03
2018-03-03T16:40:16.938Z,159.27
2018-03-03T16:42:44.519Z,105.63
2018-03-03T16:45:12.085Z,107.37
2018-03-03T16:47:39.710Z,138.33
2018-03-03T16:50:07.549Z,372.70
2018-03-03T16:52:35.099Z,210.43
2018-03-03T16:55:02.688Z,292.63
2018-03-03T16:57:30.280Z,225.63
2018-03-03T16:59:57.864Z,261.07
2018-03-03T17:02:25.433Z,291.00
2018-03-03T17:04:53.286Z,210.23
2018-03-03T17:07:21.105Z,365.27
2018-03-03T17:09:48.922Z,237.07
2018-03-03T17:12:16.522Z,402.20
2018-03-03T17:14:44.101Z,472.93
2018-03-03T17:17:11.752Z,380.93
2018-03-03T17:19:39.344Z,318.50
2018-03-03T17:22:06.982Z,270.83
2018-03-03T17:24:34.702Z,260.30
2018-03-03T17:27:02.455Z,205.50
2018-03-03T17:29:30.039Z,197.30
2018-03-03T17:31:57.671Z,268.47
2018-03-03T17:34:25.503Z,143.13
2018-03-03T17:36:53.235Z,155.33
2018-03-03T17:39:21.040Z,180.63
2018-03-03T17:41:48.671Z,243.33
2018-03-03T17:44:16.270Z,251.47
2018-03-03T17:46:43.986Z,163.43
2018-03-03T17:49:11.576Z,123.83
2018-03-03T17:51:39.305Z,100.53
2018-03-03T17:54:06.984Z,113.23
2018-03-03T17:56:34.657Z,112.00
2018-03-03T17:59:02.379Z,158.47
2018-03-03T18:01:30.114Z,137.67
2018-03-03T18:03:57.925Z,129.63
2018-03-03T18:06:25.501Z,133.33
2018-03-03T18:08:53.171Z,159.90
2018-03-03T18:11:20.879Z,175.83
2018-03-03T18:13:57.209Z,126.40
2018-03-03T18:16:24.771Z,98.63
2018-03-03T18:18:52.382Z,86.73
2018-03-03T18:21:20.177Z,73.17
2018-03-03T18:23:47.896Z,65.93
2018-03-03T18:26:15.466Z,133.17
2018-03-03T18:28:43.042Z,202.83
2018-03-03T18:31:10.626Z,112.40
2018-03-03T18:33:38.190Z,94.37
2018-03-03T18:36:05.806Z,87.20
2018-03-03T18:38:33.382Z,146.27
2018-03-03T18:41:01.221Z,115.30
2018-03-03T18:43:29.032Z,109.03
2018-03-03T18:45:56.579Z,104.77
2018-03-03T18:48:24.376Z,103.57
2018-03-03T18:50:52.193Z,108.60
2018-03-03T18:53:20.114Z,115.73
2018-03-03T18:55:47.722Z,118.00
2018-03-03T18:58:15.449Z,120.87
2018-03-03T19:00:43.268Z,125.13
2018-03-03T19:03:11.086Z,183.27
2018-03-03T19:05:38.662Z,173.43
2018-03-03T19:08:06.248Z,157.80
2018-03-03T19:10:34.041Z,165.63
2018-03-03T19:13:01.607Z,137.90
2018-03-03T19:15:29.377Z,155.40
2018-03-03T19:17:56.952Z,164.57
2018-03-03T19:20:24.742Z,128.17
2018-03-03T19:22:52.308Z,118.10
2018-03-03T19:25:19.869Z,86.57
2018-03-03T19:27:47.552Z,133.63
2018-03-03T19:30:15.130Z,130.63
2018-03-03T19:32:42.688Z,127.90
2018-03-03T19:35:10.312Z,104.13
2018-03-03T19:37:38.003Z,82.03
2018-03-03T19:40:05.648Z,81.63
2018-03-03T19:42:33.227Z,87.00
2018-03-03T19:45:01.095Z,89.67
2018-03-03T19:47:28.672Z,101.63
2018-03-03T19:49:56.237Z,106.87
2018-03-03T19:52:24.047Z,116.60
2018-03-03T19:54:51.655Z,117.53
2018-03-03T19:57:19.241Z,126.77
2018-03-03T19:59:46.815Z,117.43
2018-03-03T20:02:14.438Z,127.93
2018-03-03T20:04:42.006Z,138.50
2018-03-03T20:07:09.757Z,129.20
2018-03-03T20:09:37.342Z,123.47
2018-03-03T20:12:04.910Z,124.83
2018-03-03T20:14:32.486Z,247.93
2018-03-03T20:17:00.828Z,236.70
2018-03-03T20:19:28.645Z,214.60
2018-03-03T20:21:56.221Z,155.77
2018-03-03T20:24:23.799Z,157.63
2018-03-03T20:26:51.521Z,146.67
2018-03-03T20:29:19.087Z,134.30
2018-03-03T20:31:46.657Z,113.80
2018-03-03T20:34:14.368Z,85.07
2018-03-03T20:36:41.998Z,92.13
2018-03-03T20:39:09.561Z,62.50
2018-03-03T20:41:37.118Z,59.07
2018-03-03T20:44:04.698Z,128.03
2018-03-03T20:46:32.339Z,137.53
2018-03-03T20:49:00.161Z,117.10
2018-03-03T20:51:27.879Z,89.53
2018-03-03T20:53:55.502Z,73.03
2018-03-03T20:56:23.062Z,67.30
2018-03-03T20:58:50.832Z,108.83
2018-03-03T21:01:18.402Z,105.47
2018-03-03T21:03:46.169Z,97.73
2018-03-03T21:06:13.988Z,87.30
2018-03-03T21:08:41.779Z,76.77
2018-03-03T21:11:15.884Z,77.93
2018-03-03T21:13:43.421Z,76.70
2018-03-03T21:16:10.993Z,99.07
2018-03-03T21:18:38.700Z,89.00
2018-03-03T21:21:06.298Z,89.93
2018-03-03T21:23:33.871Z,83.67
2018-03-03T21:26:01.545Z,95.97
2018-03-03T21:28:29.371Z,111.50
2018-03-03T21:30:56.943Z,102.97
2018-03-03T21:33:24.709Z,92.20
2018-03-03T21:35:52.273Z,87.63
2018-03-03T21:38:19.838Z,73.97
2018-03-03T21:40:47.406Z,64.00
2018-03-03T21:43:15.180Z,66.83
2018-03-03T21:45:42.998Z,69.17
2018-03-03T21:48:10.638Z,99.13
2018-03-03T21:50:38.216Z,97.33
2018-03-03T21:53:05.792Z,91.33
2018-03-03T21:55:33.349Z,58.80
2018-03-03T21:58:01.188Z,59.20
2018-03-03T22:00:29.007Z,92.43
2018-03-03T22:02:56.634Z,97.27
2018-03-03T22:05:24.189Z,90.40
2018-03-03T22:07:51.960Z,89.17
2018-03-03T22:10:19.537Z,80.97
2018-03-03T22:12:47.127Z,86.20
2018-03-03T22:15:14.707Z,114.27
2018-03-03T22:17:42.407Z,86.30
2018-03-03T22:20:10.251Z,94.23
2018-03-03T22:22:37.821Z,99.10
2018-03-03T22:25:05.556Z,77.37
2018-03-03T22:27:33.273Z,78.47
2018-03-03T22:30:00.989Z,93.20
2018-03-03T22:32:28.598Z,53.77
2018-03-03T22:34:56.320Z,85.70
2018-03-03T22:37:23.951Z,75.40
2018-03-03T22:39:51.515Z,77.53
2018-03-03T22:42:19.103Z,75.17
2018-03-03T22:44:46.831Z,76.40
2018-03-03T22:47:14.394Z,69.77
2018-03-03T22:49:42.167Z,74.40
2018-03-03T22:52:09.727Z,78.80
2018-03-03T22:54:37.604Z,80.30
2018-03-03T22:57:05.194Z,89.53
2018-03-03T22:59:32.750Z,89.37
2018-03-03T23:02:00.557Z,92.00
2018-03-03T23:04:28.276Z,83.43
2018-03-03T23:06:55.910Z,81.47
2018-03-03T23:09:23.632Z,82.50
2018-03-03T23:11:51.194Z,78.97
2018-03-03T23:14:18.770Z,73.13
2018-03-03T23:16:46.336Z,73.17
2018-03-03T23:19:13.908Z,65.93
2018-03-03T23:21:41.701Z,71.50
2018-03-03T23:24:09.519Z,69.93
2018-03-03T23:26:37.130Z,72.43
2018-03-03T23:29:04.956Z,65.17
2018-03-03T23:31:32.530Z,70.93
2018-03-03T23:34:00.259Z,67.00
2018-03-03T23:36:27.976Z,38.00
2018-03-03T23:38:55.570Z,37.80
2018-03-03T23:41:23.192Z,32.00
2018-03-03T23:43:50.872Z,29.37
2018-03-03T23:46:18.430Z,56.23
2018-03-03T23:48:46.157Z,56.63
2018-03-03T23:51:13.719Z,57.70
2018-03-03T23:53:42.219Z,55.83
2018-03-03T23:56:09.931Z,55.00
2018-03-03T23:58:37.548Z,57.57
